sensor_id;sensor_type;location;lat;lon;timestamp;temperature;humidity
16829;DHT22;8531;48.078;11.968;2023-04-30T00:00:14;12.10;99.90
16829;DHT22;8531;48.078;11.968;2023-04-30T00:02:40;12.10;99.90
16829;DHT22;8531;48.078;11.968;2023-04-30T00:05:06;12.10;99.90
16829;DHT22;8531;48.078;11.968;2023-04-30T00:07:31;12.00;99.90
16829;DHT22;8531;48.078;11.968;2023-04-30T00:09:57;12.00;99.90
16829;DHT22;8531;48.078;11.968;2023-04-30T00:12:23;12.10;99.90
16829;DHT22;8531;48.078;11.968;2023-04-30T00:14:49;12.00;99.90
16829;DHT22;8531;48.078;11.968;2023-04-30T00:17:14;12.10;99.90
16829;DHT22;8531;48.078;11.968;2023-04-30T00:19:41;12.10;99.90
16829;DHT22;8531;48.078;11.968;2023-04-30T00:22:07;12.10;99.90
16829;DHT22;8531;48.078;11.968;2023-04-30T00:24:32;12.10;99.90
16829;DHT22;8531;48.078;11.968;2023-04-30T00:26:58;12.10;99.90
16829;DHT22;8531;48.078;11.968;2023-04-30T00:29:24;12.10;99.90
16829;DHT22;8531;48.078;11.968;2023-04-30T00:31:50;12.10;99.90
16829;DHT22;8531;48.078;11.968;2023-04-30T00:34:15;11.90;99.90
16829;DHT22;8531;48.078;11.968;2023-04-30T00:36:41;11.70;99.90
16829;DHT22;8531;48.078;11.968;2023-04-30T00:39:07;11.60;99.90
16829;DHT22;8531;48.078;11.968;2023-04-30T00:41:34;11.60;99.90
16829;DHT22;8531;48.078;11.968;2023-04-30T00:44:00;11.60;99.90
16829;DHT22;8531;48.078;11.968;2023-04-30T00:46:27;11.70;99.90
16829;DHT22;8531;48.078;11.968;2023-04-30T00:48:53;11.60;99.90
16829;DHT22;8531;48.078;11.968;2023-04-30T00:51:19;11.60;99.90
16829;DHT22;8531;48.078;11.968;2023-04-30T00:53:45;11.50;99.90
16829;DHT22;8531;48.078;11.968;2023-04-30T00:56:12;11.50;99.90
16829;DHT22;8531;48.078;11.968;2023-04-30T00:58:40;11.50;99.90
16829;DHT22;8531;48.078;11.968;2023-04-30T01:01:06;11.50;99.90
16829;DHT22;8531;48.078;11.968;2023-04-30T01:03:31;11.50;99.90
16829;DHT22;8531;48.078;11.968;2023-04-30T01:05:57;11.60;99.90
16829;DHT22;8531;48.078;11.968;2023-04-30T01:08:23;11.60;99.90
16829;DHT22;8531;48.078;11.968;2023-04-30T01:11:11;11.60;99.90
16829;DHT22;8531;48.078;11.968;2023-04-30T01:16:34;11.40;99.90
16829;DHT22;8531;48.078;11.968;2023-04-30T01:19:33;11.40;99.90
16829;DHT22;8531;48.078;11.968;2023-04-30T01:22:03;11.40;99.90
16829;DHT22;8531;48.078;11.968;2023-04-30T01:30:08;11.70;99.90
16829;DHT22;8531;48.078;11.968;2023-04-30T01:32:34;11.70;99.90
16829;DHT22;8531;48.078;11.968;2023-04-30T01:35:00;11.70;99.90
16829;DHT22;8531;48.078;11.968;2023-04-30T01:40:31;11.70;99.90
16829;DHT22;8531;48.078;11.968;2023-04-30T01:48:45;11.40;99.90
16829;DHT22;8531;48.078;11.968;2023-04-30T01:51:21;11.50;99.90
16829;DHT22;8531;48.078;11.968;2023-04-30T01:53:49;11.50;99.90
16829;DHT22;8531;48.078;11.968;2023-04-30T01:56:38;11.60;99.90
16829;DHT22;8531;48.078;11.968;2023-04-30T01:59:06;11.50;99.90
16829;DHT22;8531;48.078;11.968;2023-04-30T02:01:32;11.60;99.90
16829;DHT22;8531;48.078;11.968;2023-04-30T02:03:58;11.60;99.90
16829;DHT22;8531;48.078;11.968;2023-04-30T02:06:24;11.50;99.90
16829;DHT22;8531;48.078;11.968;2023-04-30T02:08:54;11.50;99.90
16829;DHT22;8531;48.078;11.968;2023-04-30T02:11:21;11.50;99.90
16829;DHT22;8531;48.078;11.968;2023-04-30T02:13:49;11.50;99.90
16829;DHT22;8531;48.078;11.968;2023-04-30T02:16:15;11.30;99.90
16829;DHT22;8531;48.078;11.968;2023-04-30T02:18:41;11.30;99.90
16829;DHT22;8531;48.078;11.968;2023-04-30T02:21:06;11.20;99.90
16829;DHT22;8531;48.078;11.968;2023-04-30T02:23:32;11.20;99.90
16829;DHT22;8531;48.078;11.968;2023-04-30T02:25:58;11.00;99.90
16829;DHT22;8531;48.078;11.968;2023-04-30T02:28:23;10.80;99.90
16829;DHT22;8531;48.078;11.968;2023-04-30T02:30:49;10.80;99.90
16829;DHT22;8531;48.078;11.968;2023-04-30T02:33:15;10.90;99.90
16829;DHT22;8531;48.078;11.968;2023-04-30T02:35:41;10.80;99.90
16829;DHT22;8531;48.078;11.968;2023-04-30T02:38:06;10.70;99.90
16829;DHT22;8531;48.078;11.968;2023-04-30T02:40:32;10.60;99.90
16829;DHT22;8531;48.078;11.968;2023-04-30T02:42:58;10.50;99.90
16829;DHT22;8531;48.078;11.968;2023-04-30T02:45:25;10.50;99.90
16829;DHT22;8531;48.078;11.968;2023-04-30T02:47:51;10.40;99.90
16829;DHT22;8531;48.078;11.968;2023-04-30T02:50:17;10.60;99.90
16829;DHT22;8531;48.078;11.968;2023-04-30T02:52:44;10.60;99.90
16829;DHT22;8531;48.078;11.968;2023-04-30T02:55:11;10.50;99.90
16829;DHT22;8531;48.078;11.968;2023-04-30T02:57:37;10.50;99.90
16829;DHT22;8531;48.078;11.968;2023-04-30T03:00:03;10.40;99.90
16829;DHT22;8531;48.078;11.968;2023-04-30T03:02:30;10.40;99.90
16829;DHT22;8531;48.078;11.968;2023-04-30T03:04:55;10.30;99.90
16829;DHT22;8531;48.078;11.968;2023-04-30T03:07:21;10.20;99.90
16829;DHT22;8531;48.078;11.968;2023-04-30T03:09:47;10.20;99.90
16829;DHT22;8531;48.078;11.968;2023-04-30T03:12:12;10.20;99.90
16829;DHT22;8531;48.078;11.968;2023-04-30T03:14:39;10.20;99.90
16829;DHT22;8531;48.078;11.968;2023-04-30T03:17:05;10.30;99.90
16829;DHT22;8531;48.078;11.968;2023-04-30T03:19:31;10.30;99.90
16829;DHT22;8531;48.078;11.968;2023-04-30T03:21:57;10.30;99.90
16829;DHT22;8531;48.078;11.968;2023-04-30T03:24:23;10.30;99.90
16829;DHT22;8531;48.078;11.968;2023-04-30T03:26:49;10.40;99.90
16829;DHT22;8531;48.078;11.968;2023-04-30T03:29:15;10.40;99.90
16829;DHT22;8531;48.078;11.968;2023-04-30T03:31:41;10.40;99.90
16829;DHT22;8531;48.078;11.968;2023-04-30T03:34:07;10.40;99.90
16829;DHT22;8531;48.078;11.968;2023-04-30T03:36:33;10.40;99.90
16829;DHT22;8531;48.078;11.968;2023-04-30T03:38:59;10.40;99.90
16829;DHT22;8531;48.078;11.968;2023-04-30T03:41:25;10.20;99.90
16829;DHT22;8531;48.078;11.968;2023-04-30T03:43:51;10.10;99.90
16829;DHT22;8531;48.078;11.968;2023-04-30T03:46:17;10.10;99.90
16829;DHT22;8531;48.078;11.968;2023-04-30T03:48:42;10.10;99.90
16829;DHT22;8531;48.078;11.968;2023-04-30T03:51:09;10.10;99.90
16829;DHT22;8531;48.078;11.968;2023-04-30T03:53:34;10.00;99.90
16829;DHT22;8531;48.078;11.968;2023-04-30T03:56:01;10.00;99.90
16829;DHT22;8531;48.078;11.968;2023-04-30T03:58:27;9.90;99.90
16829;DHT22;8531;48.078;11.968;2023-04-30T04:00:53;9.90;99.90
16829;DHT22;8531;48.078;11.968;2023-04-30T04:03:18;9.80;99.90
16829;DHT22;8531;48.078;11.968;2023-04-30T04:05:44;9.70;99.90
16829;DHT22;8531;48.078;11.968;2023-04-30T04:08:11;9.70;99.90
16829;DHT22;8531;48.078;11.968;2023-04-30T04:10:37;9.70;99.90
16829;DHT22;8531;48.078;11.968;2023-04-30T04:13:04;9.70;99.90
16829;DHT22;8531;48.078;11.968;2023-04-30T04:15:29;9.70;99.90
16829;DHT22;8531;48.078;11.968;2023-04-30T04:17:55;9.70;99.90
16829;DHT22;8531;48.078;11.968;2023-04-30T04:20:21;9.70;99.90
16829;DHT22;8531;48.078;11.968;2023-04-30T04:22:46;9.70;99.90
16829;DHT22;8531;48.078;11.968;2023-04-30T04:25:12;9.70;99.90
16829;DHT22;8531;48.078;11.968;2023-04-30T04:27:38;9.80;99.90
16829;DHT22;8531;48.078;11.968;2023-04-30T04:30:04;9.80;99.90
16829;DHT22;8531;48.078;11.968;2023-04-30T04:32:30;9.80;99.90
16829;DHT22;8531;48.078;11.968;2023-04-30T04:34:57;9.80;99.90
16829;DHT22;8531;48.078;11.968;2023-04-30T04:37:23;9.80;99.90
16829;DHT22;8531;48.078;11.968;2023-04-30T04:39:48;9.90;99.90
16829;DHT22;8531;48.078;11.968;2023-04-30T04:42:15;9.90;99.90
16829;DHT22;8531;48.078;11.968;2023-04-30T04:44:42;9.90;99.90
16829;DHT22;8531;48.078;11.968;2023-04-30T04:47:08;9.90;99.90
16829;DHT22;8531;48.078;11.968;2023-04-30T04:49:34;10.00;99.90
16829;DHT22;8531;48.078;11.968;2023-04-30T04:52:00;10.00;99.90
16829;DHT22;8531;48.078;11.968;2023-04-30T04:54:26;10.00;99.90
16829;DHT22;8531;48.078;11.968;2023-04-30T04:56:52;10.10;99.90
16829;DHT22;8531;48.078;11.968;2023-04-30T04:59:18;10.10;99.90
16829;DHT22;8531;48.078;11.968;2023-04-30T05:01:43;10.10;99.90
16829;DHT22;8531;48.078;11.968;2023-04-30T05:04:09;10.00;99.90
16829;DHT22;8531;48.078;11.968;2023-04-30T05:06:35;10.10;99.90
16829;DHT22;8531;48.078;11.968;2023-04-30T05:09:00;10.20;99.90
16829;DHT22;8531;48.078;11.968;2023-04-30T05:11:27;10.20;99.90
16829;DHT22;8531;48.078;11.968;2023-04-30T05:13:53;10.20;99.90
16829;DHT22;8531;48.078;11.968;2023-04-30T05:16:18;10.20;99.90
16829;DHT22;8531;48.078;11.968;2023-04-30T05:18:44;10.20;99.90
16829;DHT22;8531;48.078;11.968;2023-04-30T05:21:10;10.20;99.90
16829;DHT22;8531;48.078;11.968;2023-04-30T05:23:35;10.20;99.90
16829;DHT22;8531;48.078;11.968;2023-04-30T05:26:01;10.30;99.90
16829;DHT22;8531;48.078;11.968;2023-04-30T05:28:27;10.30;99.90
16829;DHT22;8531;48.078;11.968;2023-04-30T05:30:53;10.30;99.90
16829;DHT22;8531;48.078;11.968;2023-04-30T05:33:18;10.30;99.90
16829;DHT22;8531;48.078;11.968;2023-04-30T05:35:44;10.40;99.90
16829;DHT22;8531;48.078;11.968;2023-04-30T05:38:10;10.40;99.90
16829;DHT22;8531;48.078;11.968;2023-04-30T05:40:36;10.50;99.90
16829;DHT22;8531;48.078;11.968;2023-04-30T05:43:01;10.60;99.90
16829;DHT22;8531;48.078;11.968;2023-04-30T05:45:27;10.60;99.90
16829;DHT22;8531;48.078;11.968;2023-04-30T05:47:52;10.70;99.90
16829;DHT22;8531;48.078;11.968;2023-04-30T05:50:18;10.70;99.90
16829;DHT22;8531;48.078;11.968;2023-04-30T05:52:44;10.80;99.90
16829;DHT22;8531;48.078;11.968;2023-04-30T05:55:09;10.80;99.90
16829;DHT22;8531;48.078;11.968;2023-04-30T05:57:35;10.90;99.90
16829;DHT22;8531;48.078;11.968;2023-04-30T06:00:01;10.80;99.90
16829;DHT22;8531;48.078;11.968;2023-04-30T06:02:30;10.70;99.90
16829;DHT22;8531;48.078;11.968;2023-04-30T06:04:56;10.80;99.90
16829;DHT22;8531;48.078;11.968;2023-04-30T06:07:22;10.70;99.90
16829;DHT22;8531;48.078;11.968;2023-04-30T06:09:47;10.70;99.90
16829;DHT22;8531;48.078;11.968;2023-04-30T06:12:13;10.70;99.90
16829;DHT22;8531;48.078;11.968;2023-04-30T06:14:39;10.80;99.90
16829;DHT22;8531;48.078;11.968;2023-04-30T06:17:09;10.90;99.90
16829;DHT22;8531;48.078;11.968;2023-04-30T06:19:35;10.90;99.90
16829;DHT22;8531;48.078;11.968;2023-04-30T06:22:03;11.00;99.90
16829;DHT22;8531;48.078;11.968;2023-04-30T06:24:29;11.00;99.90
16829;DHT22;8531;48.078;11.968;2023-04-30T06:26:55;11.00;99.90
16829;DHT22;8531;48.078;11.968;2023-04-30T06:29:21;11.10;99.90
16829;DHT22;8531;48.078;11.968;2023-04-30T06:31:49;11.10;99.90
16829;DHT22;8531;48.078;11.968;2023-04-30T06:34:16;11.30;99.90
16829;DHT22;8531;48.078;11.968;2023-04-30T06:36:41;11.30;99.90
16829;DHT22;8531;48.078;11.968;2023-04-30T06:39:07;11.30;99.90
16829;DHT22;8531;48.078;11.968;2023-04-30T06:41:33;11.30;99.90
16829;DHT22;8531;48.078;11.968;2023-04-30T06:43:58;11.30;99.90
16829;DHT22;8531;48.078;11.968;2023-04-30T06:46:24;11.20;99.90
16829;DHT22;8531;48.078;11.968;2023-04-30T06:48:50;11.20;99.90
16829;DHT22;8531;48.078;11.968;2023-04-30T06:51:16;11.20;99.90
16829;DHT22;8531;48.078;11.968;2023-04-30T06:53:41;11.30;99.90
16829;DHT22;8531;48.078;11.968;2023-04-30T06:56:07;11.30;99.90
16829;DHT22;8531;48.078;11.968;2023-04-30T06:58:33;11.40;99.90
16829;DHT22;8531;48.078;11.968;2023-04-30T07:00:58;11.30;99.90
16829;DHT22;8531;48.078;11.968;2023-04-30T07:03:24;11.30;99.90
16829;DHT22;8531;48.078;11.968;2023-04-30T07:05:49;11.40;99.90
16829;DHT22;8531;48.078;11.968;2023-04-30T07:08:16;11.40;99.90
16829;DHT22;8531;48.078;11.968;2023-04-30T07:10:42;11.50;99.90
16829;DHT22;8531;48.078;11.968;2023-04-30T07:13:07;11.60;99.90
16829;DHT22;8531;48.078;11.968;2023-04-30T07:15:33;11.50;99.90
16829;DHT22;8531;48.078;11.968;2023-04-30T07:17:59;11.70;99.90
16829;DHT22;8531;48.078;11.968;2023-04-30T07:20:25;12.00;99.90
16829;DHT22;8531;48.078;11.968;2023-04-30T07:22:51;12.10;99.90
16829;DHT22;8531;48.078;11.968;2023-04-30T07:25:16;12.10;99.90
16829;DHT22;8531;48.078;11.968;2023-04-30T07:27:42;12.10;99.90
16829;DHT22;8531;48.078;11.968;2023-04-30T07:30:09;12.20;99.90
16829;DHT22;8531;48.078;11.968;2023-04-30T07:32:35;12.40;99.90
16829;DHT22;8531;48.078;11.968;2023-04-30T07:35:02;12.50;99.90
16829;DHT22;8531;48.078;11.968;2023-04-30T07:37:28;12.40;99.90
16829;DHT22;8531;48.078;11.968;2023-04-30T07:39:53;12.30;99.90
16829;DHT22;8531;48.078;11.968;2023-04-30T07:42:19;12.20;99.90
16829;DHT22;8531;48.078;11.968;2023-04-30T07:44:45;12.20;99.90
16829;DHT22;8531;48.078;11.968;2023-04-30T07:47:10;12.20;99.90
16829;DHT22;8531;48.078;11.968;2023-04-30T07:49:36;12.40;99.90
16829;DHT22;8531;48.078;11.968;2023-04-30T07:52:02;12.40;99.90
16829;DHT22;8531;48.078;11.968;2023-04-30T07:54:28;12.60;99.90
16829;DHT22;8531;48.078;11.968;2023-04-30T07:56:53;12.70;99.90
16829;DHT22;8531;48.078;11.968;2023-04-30T07:59:19;12.60;99.90
16829;DHT22;8531;48.078;11.968;2023-04-30T08:01:46;12.60;99.90
16829;DHT22;8531;48.078;11.968;2023-04-30T08:04:11;12.60;99.90
16829;DHT22;8531;48.078;11.968;2023-04-30T08:06:37;12.60;99.90
16829;DHT22;8531;48.078;11.968;2023-04-30T08:09:03;12.80;99.90
16829;DHT22;8531;48.078;11.968;2023-04-30T08:11:29;13.20;99.90
16829;DHT22;8531;48.078;11.968;2023-04-30T08:13:54;13.50;99.90
16829;DHT22;8531;48.078;11.968;2023-04-30T08:16:20;13.50;99.90
16829;DHT22;8531;48.078;11.968;2023-04-30T08:18:45;13.50;99.90
16829;DHT22;8531;48.078;11.968;2023-04-30T08:21:13;13.40;99.90
16829;DHT22;8531;48.078;11.968;2023-04-30T08:23:39;13.40;99.90
16829;DHT22;8531;48.078;11.968;2023-04-30T08:26:05;13.50;99.90
16829;DHT22;8531;48.078;11.968;2023-04-30T08:28:30;13.50;99.90
16829;DHT22;8531;48.078;11.968;2023-04-30T08:30:56;13.60;99.90
16829;DHT22;8531;48.078;11.968;2023-04-30T08:33:22;14.00;99.90
16829;DHT22;8531;48.078;11.968;2023-04-30T08:35:48;14.00;99.90
16829;DHT22;8531;48.078;11.968;2023-04-30T08:38:13;13.90;99.90
16829;DHT22;8531;48.078;11.968;2023-04-30T08:40:39;13.90;99.90
16829;DHT22;8531;48.078;11.968;2023-04-30T08:43:06;14.10;99.90
16829;DHT22;8531;48.078;11.968;2023-04-30T08:45:33;14.40;99.90
16829;DHT22;8531;48.078;11.968;2023-04-30T08:48:01;14.50;99.90
16829;DHT22;8531;48.078;11.968;2023-04-30T08:50:27;14.30;99.90
16829;DHT22;8531;48.078;11.968;2023-04-30T08:52:53;14.20;99.90
16829;DHT22;8531;48.078;11.968;2023-04-30T08:55:19;14.60;99.90
16829;DHT22;8531;48.078;11.968;2023-04-30T08:57:45;14.80;99.90
16829;DHT22;8531;48.078;11.968;2023-04-30T09:00:11;15.00;99.90
16829;DHT22;8531;48.078;11.968;2023-04-30T09:02:40;15.30;99.90
16829;DHT22;8531;48.078;11.968;2023-04-30T09:05:12;15.40;99.90
16829;DHT22;8531;48.078;11.968;2023-04-30T09:07:43;15.00;99.90
16829;DHT22;8531;48.078;11.968;2023-04-30T09:10:20;14.80;99.90
16829;DHT22;8531;48.078;11.968;2023-04-30T09:13:06;15.00;99.90
16829;DHT22;8531;48.078;11.968;2023-04-30T09:15:34;15.70;99.90
16829;DHT22;8531;48.078;11.968;2023-04-30T09:18:16;15.40;99.90
16829;DHT22;8531;48.078;11.968;2023-04-30T09:20:56;15.70;99.90
16829;DHT22;8531;48.078;11.968;2023-04-30T09:23:23;15.80;99.90
16829;DHT22;8531;48.078;11.968;2023-04-30T09:25:49;15.90;99.90
16829;DHT22;8531;48.078;11.968;2023-04-30T09:28:15;16.00;99.90
16829;DHT22;8531;48.078;11.968;2023-04-30T09:30:42;16.10;99.90
16829;DHT22;8531;48.078;11.968;2023-04-30T09:33:08;16.30;99.90
16829;DHT22;8531;48.078;11.968;2023-04-30T09:35:36;16.10;99.90
16829;DHT22;8531;48.078;11.968;2023-04-30T09:38:03;16.10;99.90
16829;DHT22;8531;48.078;11.968;2023-04-30T09:40:37;15.50;99.90
16829;DHT22;8531;48.078;11.968;2023-04-30T09:43:05;15.20;99.90
16829;DHT22;8531;48.078;11.968;2023-04-30T09:45:45;15.20;99.90
16829;DHT22;8531;48.078;11.968;2023-04-30T09:48:20;15.00;99.90
16829;DHT22;8531;48.078;11.968;2023-04-30T09:50:45;14.80;99.90
16829;DHT22;8531;48.078;11.968;2023-04-30T09:53:13;14.90;99.90
16829;DHT22;8531;48.078;11.968;2023-04-30T09:55:46;15.00;99.90
16829;DHT22;8531;48.078;11.968;2023-04-30T09:58:12;15.00;99.90
16829;DHT22;8531;48.078;11.968;2023-04-30T10:00:39;14.90;99.90
16829;DHT22;8531;48.078;11.968;2023-04-30T10:03:09;14.80;99.90
16829;DHT22;8531;48.078;11.968;2023-04-30T10:05:45;14.70;99.90
16829;DHT22;8531;48.078;11.968;2023-04-30T10:08:41;14.90;99.90
16829;DHT22;8531;48.078;11.968;2023-04-30T10:11:09;14.90;99.90
16829;DHT22;8531;48.078;11.968;2023-04-30T10:14:04;15.10;99.90
16829;DHT22;8531;48.078;11.968;2023-04-30T10:19:01;15.00;99.90
16829;DHT22;8531;48.078;11.968;2023-04-30T10:21:29;15.10;99.90
16829;DHT22;8531;48.078;11.968;2023-04-30T10:23:57;15.00;99.90
16829;DHT22;8531;48.078;11.968;2023-04-30T10:26:23;15.10;99.90
16829;DHT22;8531;48.078;11.968;2023-04-30T10:28:51;15.10;99.90
16829;DHT22;8531;48.078;11.968;2023-04-30T10:31:18;15.10;99.90
16829;DHT22;8531;48.078;11.968;2023-04-30T10:36:45;15.00;99.90
16829;DHT22;8531;48.078;11.968;2023-04-30T10:39:17;15.00;99.90
16829;DHT22;8531;48.078;11.968;2023-04-30T10:41:44;15.10;99.90
16829;DHT22;8531;48.078;11.968;2023-04-30T10:44:11;15.40;99.90
16829;DHT22;8531;48.078;11.968;2023-04-30T10:46:38;15.10;99.90
16829;DHT22;8531;48.078;11.968;2023-04-30T10:49:03;15.40;99.90
16829;DHT22;8531;48.078;11.968;2023-04-30T10:51:49;15.50;99.90
16829;DHT22;8531;48.078;11.968;2023-04-30T10:54:23;15.40;99.90
16829;DHT22;8531;48.078;11.968;2023-04-30T10:56:50;15.30;99.90
16829;DHT22;8531;48.078;11.968;2023-04-30T10:59:17;15.70;99.90
16829;DHT22;8531;48.078;11.968;2023-04-30T11:01:58;16.10;99.90
16829;DHT22;8531;48.078;11.968;2023-04-30T11:04:24;16.20;99.90
16829;DHT22;8531;48.078;11.968;2023-04-30T11:07:00;16.30;99.90
16829;DHT22;8531;48.078;11.968;2023-04-30T11:09:37;16.80;99.90
16829;DHT22;8531;48.078;11.968;2023-04-30T11:12:08;17.10;99.90
16829;DHT22;8531;48.078;11.968;2023-04-30T11:14:42;17.00;99.90
16829;DHT22;8531;48.078;11.968;2023-04-30T11:17:09;17.60;99.90
16829;DHT22;8531;48.078;11.968;2023-04-30T11:19:44;17.90;99.90
16829;DHT22;8531;48.078;11.968;2023-04-30T11:22:14;18.00;99.90
16829;DHT22;8531;48.078;11.968;2023-04-30T11:27:25;17.60;99.90
16829;DHT22;8531;48.078;11.968;2023-04-30T11:29:51;17.30;99.90
16829;DHT22;8531;48.078;11.968;2023-04-30T11:32:18;17.00;99.90
16829;DHT22;8531;48.078;11.968;2023-04-30T11:34:44;17.10;99.90
16829;DHT22;8531;48.078;11.968;2023-04-30T11:37:19;17.30;99.90
16829;DHT22;8531;48.078;11.968;2023-04-30T11:39:46;17.50;99.90
16829;DHT22;8531;48.078;11.968;2023-04-30T11:42:17;16.70;99.90
16829;DHT22;8531;48.078;11.968;2023-04-30T11:44:44;17.10;99.90
16829;DHT22;8531;48.078;11.968;2023-04-30T11:47:11;17.60;99.90
16829;DHT22;8531;48.078;11.968;2023-04-30T11:49:37;17.60;99.90
16829;DHT22;8531;48.078;11.968;2023-04-30T11:52:03;17.50;99.90
16829;DHT22;8531;48.078;11.968;2023-04-30T11:54:32;17.70;99.90
16829;DHT22;8531;48.078;11.968;2023-04-30T11:56:59;17.80;99.90
16829;DHT22;8531;48.078;11.968;2023-04-30T11:59:28;17.90;99.90
16829;DHT22;8531;48.078;11.968;2023-04-30T12:01:54;18.30;99.90
16829;DHT22;8531;48.078;11.968;2023-04-30T12:04:20;18.30;99.90
16829;DHT22;8531;48.078;11.968;2023-04-30T12:06:47;18.40;99.90
16829;DHT22;8531;48.078;11.968;2023-04-30T12:09:13;18.20;99.90
16829;DHT22;8531;48.078;11.968;2023-04-30T12:11:38;17.60;99.90
16829;DHT22;8531;48.078;11.968;2023-04-30T12:14:08;17.70;99.90
16829;DHT22;8531;48.078;11.968;2023-04-30T12:16:46;17.90;99.90
16829;DHT22;8531;48.078;11.968;2023-04-30T12:19:18;18.00;99.90
16829;DHT22;8531;48.078;11.968;2023-04-30T12:21:45;17.80;99.90
16829;DHT22;8531;48.078;11.968;2023-04-30T12:24:12;17.70;99.90
16829;DHT22;8531;48.078;11.968;2023-04-30T12:26:39;17.70;99.90
16829;DHT22;8531;48.078;11.968;2023-04-30T12:29:08;17.50;99.90
16829;DHT22;8531;48.078;11.968;2023-04-30T12:31:35;17.70;99.90
16829;DHT22;8531;48.078;11.968;2023-04-30T12:34:09;18.00;99.90
16829;DHT22;8531;48.078;11.968;2023-04-30T12:36:35;18.40;99.90
16829;DHT22;8531;48.078;11.968;2023-04-30T12:39:11;18.20;99.90
16829;DHT22;8531;48.078;11.968;2023-04-30T12:44:23;17.80;99.90
16829;DHT22;8531;48.078;11.968;2023-04-30T12:46:51;18.30;99.90
16829;DHT22;8531;48.078;11.968;2023-04-30T12:49:27;18.30;99.90
16829;DHT22;8531;48.078;11.968;2023-04-30T12:52:03;18.50;99.90
16829;DHT22;8531;48.078;11.968;2023-04-30T12:54:32;18.80;99.90
16829;DHT22;8531;48.078;11.968;2023-04-30T12:57:00;18.40;99.90
16829;DHT22;8531;48.078;11.968;2023-04-30T12:59:27;18.20;99.90
16829;DHT22;8531;48.078;11.968;2023-04-30T13:01:53;17.70;99.90
16829;DHT22;8531;48.078;11.968;2023-04-30T13:04:20;17.50;99.90
16829;DHT22;8531;48.078;11.968;2023-04-30T13:06:45;17.60;99.90
16829;DHT22;8531;48.078;11.968;2023-04-30T13:09:11;17.80;99.90
16829;DHT22;8531;48.078;11.968;2023-04-30T13:11:37;17.90;99.90
16829;DHT22;8531;48.078;11.968;2023-04-30T13:14:03;17.50;99.90
16829;DHT22;8531;48.078;11.968;2023-04-30T13:16:29;17.50;99.90
16829;DHT22;8531;48.078;11.968;2023-04-30T13:18:55;17.80;99.90
16829;DHT22;8531;48.078;11.968;2023-04-30T13:21:21;17.60;99.90
16829;DHT22;8531;48.078;11.968;2023-04-30T13:23:47;17.50;99.90
16829;DHT22;8531;48.078;11.968;2023-04-30T13:26:13;17.90;99.90
16829;DHT22;8531;48.078;11.968;2023-04-30T13:28:39;18.10;99.90
16829;DHT22;8531;48.078;11.968;2023-04-30T13:31:05;18.00;99.90
16829;DHT22;8531;48.078;11.968;2023-04-30T13:33:30;18.10;99.90
16829;DHT22;8531;48.078;11.968;2023-04-30T13:35:56;18.30;99.90
16829;DHT22;8531;48.078;11.968;2023-04-30T13:38:22;18.10;99.90
16829;DHT22;8531;48.078;11.968;2023-04-30T13:40:47;18.10;99.90
16829;DHT22;8531;48.078;11.968;2023-04-30T13:43:13;18.20;99.90
16829;DHT22;8531;48.078;11.968;2023-04-30T13:45:39;18.10;99.90
16829;DHT22;8531;48.078;11.968;2023-04-30T13:48:04;18.20;99.90
16829;DHT22;8531;48.078;11.968;2023-04-30T13:50:30;18.10;99.90
16829;DHT22;8531;48.078;11.968;2023-04-30T13:52:56;18.30;99.90
16829;DHT22;8531;48.078;11.968;2023-04-30T13:55:23;18.50;99.90
16829;DHT22;8531;48.078;11.968;2023-04-30T13:57:49;18.70;99.90
16829;DHT22;8531;48.078;11.968;2023-04-30T14:00:15;18.70;99.90
16829;DHT22;8531;48.078;11.968;2023-04-30T14:02:42;18.90;99.90
16829;DHT22;8531;48.078;11.968;2023-04-30T14:05:08;18.80;99.90
16829;DHT22;8531;48.078;11.968;2023-04-30T14:07:33;18.80;99.90
16829;DHT22;8531;48.078;11.968;2023-04-30T14:09:59;18.40;99.90
16829;DHT22;8531;48.078;11.968;2023-04-30T14:12:25;19.00;99.90
16829;DHT22;8531;48.078;11.968;2023-04-30T14:14:51;18.50;99.90
16829;DHT22;8531;48.078;11.968;2023-04-30T14:17:17;18.10;99.90
16829;DHT22;8531;48.078;11.968;2023-04-30T14:19:42;18.20;99.90
16829;DHT22;8531;48.078;11.968;2023-04-30T14:22:08;18.40;99.90
16829;DHT22;8531;48.078;11.968;2023-04-30T14:24:34;18.50;99.90
16829;DHT22;8531;48.078;11.968;2023-04-30T14:27:00;18.80;99.90
16829;DHT22;8531;48.078;11.968;2023-04-30T14:29:28;18.40;99.90
16829;DHT22;8531;48.078;11.968;2023-04-30T14:31:53;18.20;99.90
16829;DHT22;8531;48.078;11.968;2023-04-30T14:34:19;18.60;99.90
16829;DHT22;8531;48.078;11.968;2023-04-30T14:36:45;18.70;99.90
16829;DHT22;8531;48.078;11.968;2023-04-30T14:39:11;18.80;99.90
16829;DHT22;8531;48.078;11.968;2023-04-30T14:41:37;18.80;99.90
16829;DHT22;8531;48.078;11.968;2023-04-30T14:44:03;18.40;99.90
16829;DHT22;8531;48.078;11.968;2023-04-30T14:46:29;18.50;99.90
16829;DHT22;8531;48.078;11.968;2023-04-30T14:48:55;18.50;99.90
16829;DHT22;8531;48.078;11.968;2023-04-30T14:51:21;18.40;99.90
16829;DHT22;8531;48.078;11.968;2023-04-30T14:53:47;18.40;99.90
16829;DHT22;8531;48.078;11.968;2023-04-30T14:56:13;18.40;99.90
16829;DHT22;8531;48.078;11.968;2023-04-30T14:58:39;18.40;99.90
16829;DHT22;8531;48.078;11.968;2023-04-30T15:01:04;18.10;99.90
16829;DHT22;8531;48.078;11.968;2023-04-30T15:03:30;17.90;99.90
16829;DHT22;8531;48.078;11.968;2023-04-30T15:05:56;17.90;99.90
16829;DHT22;8531;48.078;11.968;2023-04-30T15:08:22;17.70;99.90
16829;DHT22;8531;48.078;11.968;2023-04-30T15:10:48;17.70;99.90
16829;DHT22;8531;48.078;11.968;2023-04-30T15:13:13;17.60;99.90
16829;DHT22;8531;48.078;11.968;2023-04-30T15:15:39;17.90;99.90
16829;DHT22;8531;48.078;11.968;2023-04-30T15:18:06;17.80;99.90
16829;DHT22;8531;48.078;11.968;2023-04-30T15:20:32;17.70;99.90
16829;DHT22;8531;48.078;11.968;2023-04-30T15:22:57;17.50;99.90
16829;DHT22;8531;48.078;11.968;2023-04-30T15:25:23;17.40;99.90
16829;DHT22;8531;48.078;11.968;2023-04-30T15:27:49;17.50;99.90
16829;DHT22;8531;48.078;11.968;2023-04-30T15:30:18;17.40;99.90
16829;DHT22;8531;48.078;11.968;2023-04-30T15:32:44;17.20;99.90
16829;DHT22;8531;48.078;11.968;2023-04-30T15:35:10;17.20;99.90
16829;DHT22;8531;48.078;11.968;2023-04-30T15:37:36;16.90;99.90
16829;DHT22;8531;48.078;11.968;2023-04-30T15:40:02;16.90;99.90
16829;DHT22;8531;48.078;11.968;2023-04-30T15:42:29;17.20;99.90
16829;DHT22;8531;48.078;11.968;2023-04-30T15:44:55;17.10;99.90
16829;DHT22;8531;48.078;11.968;2023-04-30T15:47:20;17.10;99.90
16829;DHT22;8531;48.078;11.968;2023-04-30T15:49:46;17.10;99.90
16829;DHT22;8531;48.078;11.968;2023-04-30T15:52:13;17.10;99.90
16829;DHT22;8531;48.078;11.968;2023-04-30T15:54:39;17.20;99.90
16829;DHT22;8531;48.078;11.968;2023-04-30T15:57:06;17.10;99.90
16829;DHT22;8531;48.078;11.968;2023-04-30T15:59:32;17.10;99.90